首页
METAR-TAF:

METAR-TAF

机场 :

西爾維奧·佩蒂羅西國際機場

亞松森, 巴拉圭

纬度: 25-16S, 经度: 057-38W, 海拔: 101米

当前天气观测

该预报发布于58分钟前的00:00 UTC
风速3节,风向东转东北
温度 19°C
湿度 83%
气压 1016 hPa
能見度: 8000

METAR: SGAS 210000Z 07003KT 8000 NSC 19/16 Q1016

时间: 20:58 (00:58 UTC)

预报

该预报发布于2小时和18分钟前的22:40 UTC
预报有效从21日的 00点(UTC)到 22日的 00点(UTC)
风速5节,风向东北
能見度: 7000
几率 30%
从 21日的 06点(UTC)到 21日的 08点(UTC)
风速节,风向
能見度: 5000
轻雾
成为
从 21日的 12点(UTC)到 21日的 15点(UTC)
风速10节,风向东北
能见度10公里或以上
散云层高于3300英尺
成为
从 21日的 20点(UTC)到 21日的 23点(UTC)
风速3节,风向多变
能见度10公里或以上
1500米以下无云,无积雨云

TAF: SGAS 202240Z 2100/2200 05005KT 7000 NSC TX29/2119Z TN17/2109Z PROB30 2106/2108 00000KT 5000 BR NSC BECMG 2112/2115 04010KT 9999 SCT033 BECMG 2120/2123 VRB03KT CAVOK

超过4000个机场的气象观测和天气预报(METAR&TAF报告)。

可查询的气象台以黄色和红色小点在地图上表示。

将鼠标移到小点上方,可查看气象台名称。

然后点击查看天气观测和预报。

如需切换地图:点击带黑十字的绿色按钮放大地图;点击带横线的绿色按钮缩小地图;或者点击绿色箭头查看邻近地区的地图。


METAR-TAF: